LEZLLPPR

Guest
Details From LEZL - Sevilla
To LPPR - Porto
Flight Number -
Tags generated
Created
Modified
Stats Distance 292 nm / 541 km
Max Altitude 32,500 ft / 9,906 m
Waypoints 5
Social Downloads 1
Likes 0
Share VATSIM

Download

Looking for another format? Having issues loading an existing format? Contact us
Advertisement - Login to hide

Notes

Basic altitude profile: - Ascent Rate: 2500ft/min - Ascent Speed: 250kts - Cruise Altitude: 35000ft - Cruise Speed: 420kts - Descent Rate: 1500ft/min - Descent Speed: 250kts Options: - Use NATs: yes - Use PACOTS: yes - Use low airways: yes - Use high airways: yes

Route

LEZL ALAGU UZ1 DIGAL LPPR

ID Type Via Altitude Latitude Longitude Leg Dist Tot Dist Heading (true) Name
O LEZL APT - 0 ft / 0 m 37.41794˚ -5.89309˚ - 0 nm - Sevilla
ALAGU FIX - 32,500 ft / 9,906 m 38.08861˚ -7.61444˚ 91 nm 91 nm 297° / 296° -
BIRBA FIX UZ1 (AWY-HI) 29,900 ft / 9,114 m 39.10556˚ -7.51194˚ 61 nm 152 nm 4° / 5° -
DIGAL FIX UZ1 (AWY-HI) 20,500 ft / 6,248 m 39.74083˚ -7.98972˚ 44 nm 196 nm 330° / 330° -
O LPPR APT - 0 ft / 0 m 41.24793˚ -8.68122˚ 95 nm 292 nm 341° / 341° Porto

Altitude Profile

Advertisement - Login to hide

Weather


0- 5 10 15 20 25 30 35+ Temperature / ° C

Clouds and Precipitation
Forecast for 2017-12-18 06:00 UTC. Updated 20 minutes ago

Ground ~20,000 ft ~40,000 ft Winds

LEZL

Details ICAO LEZL (SVQ)
Name Sevilla
Region Spain
Timezone Europe/Madrid (UTC+1.0)
Stats Elevation 111 ft / 34 m (AMSL)
Location 37.417939° -5.893093°
Runways 1
Magnetic Variation 1.295° W

METAR

LEZL 180530Z 04006KT CAVOK 08/02 Q1031 NOSIG

Decode

TAF

TAF LEZL 180200Z 1803/1903 05009KT CAVOK TX15/1815Z TN04/1807Z

Decode

Departure Runways

ID Width Length Bearing (true) Bearing (mag) Surface Threshold Offset Overrun Length
09 148 ft / 45 m 11,008 ft / 3,355 m 89.75° 91.05° Asphalt 0 ft / 0 m 0 ft / 0 m
27 148 ft / 45 m 11,008 ft / 3,355 m 269.77° 271.07° Asphalt 0 ft / 0 m 0 ft / 0 m

LPPR

Details ICAO LPPR (OPO)
Name Porto
Region Portugal
Timezone Europe/Lisbon (UTC+0.0)
Stats Elevation 228 ft / 69 m (AMSL)
Location 41.247932° -8.681221°
Runways 1
Magnetic Variation 2.338° W

METAR

LPPR 180530Z VRB02KT CAVOK 04/01 Q1034

Decode

TAF

TAF LPPR 172300Z 1800/1824 08005KT CAVOK BECMG 1812/1815 35007KT BECMG 1818/1821 03005KT

Decode

Destination Runways

ID Width Length Bearing (true) Bearing (mag) Surface Threshold Offset Overrun Length
17 148 ft / 45 m 11,451 ft / 3,490 m 168.88° 171.22° Asphalt 984 ft / 300 m 220 ft / 67 m
35 148 ft / 45 m 11,451 ft / 3,490 m 348.89° 351.23° Asphalt 492 ft / 150 m 370 ft / 113 m

Approach Navaids

Runway Type Ident Frequency Range Bearing (true) Bearing (mag) Slope Elevation
17 Localiser PR 109.90 MHz 18 nm / 33 km 168.87° 171.21° - 228 ft / 69 m (AMSL)
17 Glidescope PR 109.90 MHz 10 nm / 19 km 168.88° 171.22° 2.72° 228 ft / 69 m (AMSL)
17 DME PR 109.90 MHz 18 nm / 33 km - - - 228 ft / 69 m (AMSL)

Popular Alternatives